createdAt,value
2018-10-12T00:00:41.410Z,92.20
2018-10-12T00:03:10.808Z,92.20
2018-10-12T00:05:39.557Z,92.20
2018-10-12T00:08:08.413Z,92.60
2018-10-12T00:10:37.251Z,92.30
2018-10-12T00:13:06.124Z,92.40
2018-10-12T00:15:35.384Z,92.40
2018-10-12T00:18:04.321Z,92.20
2018-10-12T00:20:33.163Z,92.20
2018-10-12T00:23:02.051Z,92.30
2018-10-12T00:25:30.541Z,92.20
2018-10-12T00:27:59.509Z,92.30
2018-10-12T00:30:28.097Z,92.30
2018-10-12T00:32:56.603Z,92.30
2018-10-12T00:35:25.458Z,92.30
2018-10-12T00:37:54.380Z,92.40
2018-10-12T00:40:23.288Z,92.40
2018-10-12T00:42:52.540Z,92.40
2018-10-12T00:45:21.021Z,92.40
2018-10-12T00:47:55.229Z,92.40
2018-10-12T00:50:23.739Z,92.40
2018-10-12T00:52:52.420Z,92.40
2018-10-12T00:55:20.930Z,92.50
2018-10-12T00:57:54.960Z,92.50
2018-10-12T01:00:25.640Z,92.50
2018-10-12T01:02:54.476Z,92.50
2018-10-12T01:05:23.331Z,93.00
2018-10-12T01:07:52.147Z,92.80
2018-10-12T01:10:21.009Z,92.90
2018-10-12T01:12:49.895Z,92.90
2018-10-12T01:15:18.795Z,92.80
2018-10-12T01:17:47.467Z,92.80
2018-10-12T01:20:16.220Z,92.90
2018-10-12T01:22:44.855Z,92.90
2018-10-12T01:25:13.807Z,92.90
2018-10-12T01:27:42.637Z,93.00
2018-10-12T01:30:11.585Z,92.90
2018-10-12T01:32:45.994Z,93.00
2018-10-12T01:35:14.847Z,93.00
2018-10-12T01:37:43.712Z,93.30
2018-10-12T01:40:12.171Z,93.10
2018-10-12T01:42:40.883Z,93.10
2018-10-12T01:45:10.193Z,93.00
2018-10-12T01:47:39.066Z,93.00
2018-10-12T01:50:08.217Z,92.90
2018-10-12T01:52:37.028Z,92.80
2018-10-12T01:55:05.913Z,92.80
2018-10-12T01:57:34.433Z,92.80
2018-10-12T02:00:03.367Z,92.70
2018-10-12T02:02:31.971Z,92.70
2018-10-12T02:05:00.686Z,92.70
2018-10-12T02:07:29.368Z,92.60
2018-10-12T02:09:58.099Z,92.50
2018-10-12T02:12:26.745Z,92.40
2018-10-12T02:14:55.424Z,92.40
2018-10-12T02:17:24.319Z,92.50
2018-10-12T02:19:53.001Z,92.40
2018-10-12T02:22:21.680Z,92.30
2018-10-12T02:24:50.349Z,92.30
2018-10-12T02:27:19.308Z,92.20
2018-10-12T02:29:47.919Z,92.10
2018-10-12T02:32:16.616Z,92.10
2018-10-12T02:34:45.521Z,92.40
2018-10-12T02:37:14.400Z,91.90
2018-10-12T02:39:43.224Z,92.00
2018-10-12T02:42:11.798Z,92.00
2018-10-12T02:44:40.651Z,91.90
2018-10-12T02:47:09.367Z,92.00
2018-10-12T02:49:38.012Z,92.00
2018-10-12T02:52:06.896Z,91.90
2018-10-12T02:54:35.380Z,91.90
2018-10-12T02:57:04.102Z,91.90
2018-10-12T02:59:32.758Z,91.90
2018-10-12T03:02:01.459Z,91.90
2018-10-12T03:04:30.384Z,92.10
2018-10-12T03:06:59.233Z,92.10
2018-10-12T03:09:27.922Z,92.00
2018-10-12T03:11:56.619Z,92.00
2018-10-12T03:14:25.544Z,92.00
2018-10-12T03:16:54.379Z,92.10
2018-10-12T03:19:23.135Z,92.00
2018-10-12T03:21:51.932Z,92.00
2018-10-12T03:24:20.636Z,92.10
2018-10-12T03:26:49.353Z,92.10
2018-10-12T03:29:18.440Z,92.00
2018-10-12T03:31:47.406Z,92.00
2018-10-12T03:34:16.263Z,92.10
2018-10-12T03:36:45.182Z,92.00
2018-10-12T03:39:13.804Z,91.90
2018-10-12T03:41:42.730Z,91.90
2018-10-12T03:44:11.374Z,92.00
2018-10-12T03:46:40.799Z,91.90
2018-10-12T03:49:09.410Z,91.80
2018-10-12T03:51:38.041Z,91.80
2018-10-12T03:54:06.728Z,91.80
2018-10-12T03:56:35.434Z,91.70
2018-10-12T03:59:03.976Z,91.60
2018-10-12T04:01:32.573Z,91.50
2018-10-12T04:04:01.484Z,91.40
2018-10-12T04:06:30.652Z,91.40
2018-10-12T04:08:59.424Z,91.40
2018-10-12T04:11:28.765Z,91.40
2018-10-12T04:13:57.639Z,91.30
2018-10-12T04:16:26.305Z,91.40
2018-10-12T04:18:54.829Z,91.30
2018-10-12T04:21:23.696Z,91.10
2018-10-12T04:23:52.571Z,91.00
2018-10-12T04:26:21.267Z,91.00
2018-10-12T04:28:49.925Z,90.80
2018-10-12T04:31:18.637Z,90.80
2018-10-12T04:33:47.346Z,90.90
2018-10-12T04:36:15.970Z,90.70
2018-10-12T04:38:55.525Z,90.70
2018-10-12T04:41:24.356Z,90.60
2018-10-12T04:43:58.646Z,90.60
2018-10-12T04:46:32.797Z,90.70
2018-10-12T04:49:02.396Z,90.50
2018-10-12T04:51:54.441Z,90.40
2018-10-12T04:54:23.522Z,90.60
2018-10-12T04:56:52.789Z,90.20
2018-10-12T04:59:21.653Z,90.30
2018-10-12T05:01:50.639Z,90.10
2018-10-12T05:04:24.168Z,90.10
2018-10-12T05:06:53.642Z,90.20
2018-10-12T05:09:22.385Z,89.70
2018-10-12T05:11:51.643Z,89.90
2018-10-12T05:14:20.371Z,89.90
2018-10-12T05:16:49.467Z,89.40
2018-10-12T05:19:18.330Z,89.00
2018-10-12T05:21:47.250Z,88.80
2018-10-12T05:24:15.977Z,88.70
2018-10-12T05:26:44.754Z,88.70
2018-10-12T05:29:19.038Z,89.00
2018-10-12T05:31:52.740Z,88.30
2018-10-12T05:34:23.504Z,89.00
2018-10-12T05:36:53.476Z,89.10
2018-10-12T05:39:24.960Z,88.40
2018-10-12T05:42:00.546Z,89.20
2018-10-12T05:44:34.953Z,88.80
2018-10-12T05:47:09.997Z,88.60
2018-10-12T05:49:58.778Z,89.10
2018-10-12T05:52:37.083Z,88.80
2018-10-12T05:55:08.882Z,88.20
2018-10-12T05:57:40.878Z,88.90
2018-10-12T06:00:10.412Z,88.00
2018-10-12T06:02:39.156Z,88.50
2018-10-12T06:05:08.108Z,87.60
2018-10-12T06:07:36.951Z,88.30
2018-10-12T06:10:05.911Z,88.00
2018-10-12T06:12:34.753Z,87.70
2018-10-12T06:15:08.129Z,87.20
2018-10-12T06:17:37.361Z,88.00
2018-10-12T06:20:05.844Z,87.50
2018-10-12T06:22:34.741Z,87.40
2018-10-12T06:25:03.665Z,87.70
2018-10-12T06:27:32.511Z,87.80
2018-10-12T06:30:06.703Z,87.60
2018-10-12T06:32:35.606Z,87.90
2018-10-12T06:35:04.698Z,87.50
2018-10-12T06:37:33.609Z,87.40
2018-10-12T06:40:02.263Z,87.60
2018-10-12T06:42:30.738Z,88.00
2018-10-12T06:44:59.268Z,86.70
2018-10-12T06:47:28.284Z,87.80
2018-10-12T06:49:57.064Z,87.70
2018-10-12T06:52:25.668Z,88.30
2018-10-12T06:54:54.347Z,88.10
2018-10-12T06:57:23.079Z,87.40
2018-10-12T06:59:51.895Z,88.10
2018-10-12T07:02:20.547Z,88.00
2018-10-12T07:04:50.032Z,87.90
2018-10-12T07:07:18.928Z,87.80
2018-10-12T07:09:47.950Z,87.00
2018-10-12T07:12:16.814Z,87.00
2018-10-12T07:14:45.544Z,87.10
2018-10-12T07:17:14.217Z,86.40
2018-10-12T07:19:43.296Z,87.00
2018-10-12T07:22:11.610Z,87.70
2018-10-12T07:24:40.316Z,86.90
2018-10-12T07:27:09.177Z,87.90
2018-10-12T07:29:37.857Z,87.30
2018-10-12T07:32:16.086Z,86.40
2018-10-12T07:34:44.662Z,86.10
2018-10-12T07:37:13.347Z,86.90
2018-10-12T07:39:42.188Z,86.70
2018-10-12T07:42:10.697Z,86.30
2018-10-12T07:44:39.617Z,85.60
2018-10-12T07:47:08.300Z,86.90
2018-10-12T07:49:37.189Z,86.60
2018-10-12T07:52:05.819Z,86.20
2018-10-12T07:54:34.541Z,84.90
2018-10-12T07:57:08.860Z,84.50
2018-10-12T07:59:37.939Z,85.00
2018-10-12T08:02:06.847Z,84.40
2018-10-12T08:04:35.494Z,84.20
2018-10-12T08:07:04.333Z,85.40
2018-10-12T08:09:33.239Z,84.20
2018-10-12T08:12:02.114Z,84.10
2018-10-12T08:14:30.955Z,83.90
2018-10-12T08:16:59.775Z,83.70
2018-10-12T08:19:28.829Z,83.50
2018-10-12T08:21:57.643Z,84.40
2018-10-12T08:24:26.346Z,83.80
2018-10-12T08:26:55.085Z,83.70
2018-10-12T08:29:24.993Z,84.00
2018-10-12T08:31:54.033Z,83.30
2018-10-12T08:34:23.212Z,83.20
2018-10-12T08:36:51.994Z,83.30
2018-10-12T08:39:20.903Z,83.40
2018-10-12T08:41:49.707Z,82.80
2018-10-12T08:44:18.254Z,83.90
2018-10-12T08:46:46.864Z,83.60
2018-10-12T08:49:24.672Z,83.30
2018-10-12T08:51:53.974Z,82.20
2018-10-12T08:54:22.927Z,82.30
2018-10-12T08:56:59.082Z,83.50
2018-10-12T08:59:36.388Z,82.90
2018-10-12T09:02:08.417Z,83.00
2018-10-12T09:04:37.031Z,83.60
2018-10-12T09:07:05.733Z,82.20
2018-10-12T09:09:49.250Z,83.10
2018-10-12T09:12:18.719Z,83.10
2018-10-12T09:14:48.143Z,83.10
2018-10-12T09:17:17.523Z,83.70
2018-10-12T09:20:31.230Z,82.90
2018-10-12T09:23:00.842Z,82.90
2018-10-12T09:25:29.310Z,82.80
2018-10-12T09:27:57.873Z,82.60
2018-10-12T09:30:26.560Z,82.70
2018-10-12T09:32:55.253Z,82.80
2018-10-12T09:35:23.897Z,82.80
2018-10-12T09:37:52.835Z,81.50
2018-10-12T09:40:21.701Z,82.30
2018-10-12T09:42:50.564Z,82.40
2018-10-12T09:45:19.304Z,81.90
2018-10-12T09:54:33.062Z,81.80
2018-10-12T09:57:07.252Z,80.20
2018-10-12T09:59:36.166Z,79.00
2018-10-12T10:02:10.593Z,79.80
2018-10-12T10:04:39.422Z,79.00
2018-10-12T10:07:08.154Z,78.70
2018-10-12T10:09:37.059Z,78.30
2018-10-12T10:12:05.947Z,77.90
2018-10-12T10:14:34.825Z,77.20
2018-10-12T10:17:03.399Z,77.80
2018-10-12T10:19:32.021Z,77.10
2018-10-12T10:22:00.946Z,77.80
2018-10-12T10:24:29.559Z,77.40
2018-10-12T10:26:58.297Z,77.00
2018-10-12T10:29:26.980Z,77.10
2018-10-12T10:31:55.608Z,77.40
2018-10-12T10:34:24.532Z,77.50
2018-10-12T10:36:53.227Z,76.80
2018-10-12T10:39:21.891Z,77.30
2018-10-12T10:41:50.777Z,77.80
2018-10-12T10:44:19.669Z,76.00
2018-10-12T10:46:48.579Z,74.60
2018-10-12T10:49:17.075Z,74.20
2018-10-12T10:51:45.901Z,73.50
2018-10-12T10:54:14.609Z,74.60
2018-10-12T10:56:43.514Z,73.00
2018-10-12T10:59:12.169Z,73.60
2018-10-12T11:01:40.876Z,72.40
2018-10-12T11:04:09.574Z,71.40
2018-10-12T11:06:38.447Z,70.40
2018-10-12T11:09:08.333Z,68.00
2018-10-12T11:11:37.262Z,69.00
2018-10-12T11:14:06.078Z,63.00
2018-10-12T11:16:34.795Z,61.40
2018-10-12T11:19:03.753Z,59.90
2018-10-12T11:21:32.593Z,59.50
2018-10-12T11:24:01.484Z,59.40
2018-10-12T11:26:29.997Z,56.80
2018-10-12T11:28:58.861Z,56.20
2018-10-12T11:31:27.540Z,55.60
2018-10-12T11:33:56.409Z,54.50
2018-10-12T11:36:24.985Z,54.20
2018-10-12T11:38:53.607Z,54.00
2018-10-12T11:41:22.544Z,52.50
2018-10-12T11:43:51.198Z,51.40
2018-10-12T11:46:19.871Z,50.90
2018-10-12T11:48:48.151Z,50.70
2018-10-12T11:51:17.009Z,49.90
2018-10-12T11:53:45.653Z,50.50
2018-10-12T11:56:14.421Z,50.00
2018-10-12T11:58:43.279Z,50.10
2018-10-12T12:01:12.001Z,49.50
2018-10-12T12:03:40.684Z,50.60
2018-10-12T12:06:09.327Z,48.90
2018-10-12T12:08:38.243Z,47.00
2018-10-12T12:11:06.831Z,48.40
2018-10-12T12:13:35.663Z,48.50
2018-10-12T12:16:04.253Z,49.10
2018-10-12T12:18:33.001Z,49.70
2018-10-12T12:22:04.961Z,47.60
2018-10-12T12:24:33.838Z,47.80
2018-10-12T12:27:02.390Z,47.60
2018-10-12T12:29:30.995Z,49.20
2018-10-12T12:31:59.928Z,47.70
2018-10-12T12:34:28.803Z,48.00
2018-10-12T12:37:00.576Z,47.50
2018-10-12T12:39:29.422Z,48.10
2018-10-12T12:41:58.142Z,46.40
2018-10-12T12:44:26.665Z,46.20
2018-10-12T12:46:55.314Z,46.50
2018-10-12T12:49:24.328Z,45.70
2018-10-12T12:51:53.098Z,46.00
2018-10-12T12:54:21.974Z,46.80
2018-10-12T12:56:50.583Z,46.60
2018-10-12T12:59:19.150Z,46.70
2018-10-12T13:01:48.638Z,45.00
2018-10-12T13:04:17.525Z,42.90
2018-10-12T13:06:46.431Z,44.50
2018-10-12T13:09:15.316Z,43.10
2018-10-12T13:11:44.195Z,42.20
2018-10-12T13:14:12.867Z,42.70
2018-10-12T13:16:41.545Z,42.30
2018-10-12T13:19:11.407Z,41.90
2018-10-12T13:21:39.944Z,43.70
2018-10-12T13:24:08.613Z,43.80
2018-10-12T13:26:38.280Z,44.90
2018-10-12T13:29:09.461Z,44.60
2018-10-12T13:31:38.383Z,45.50
2018-10-12T13:34:07.291Z,45.40
2018-10-12T13:36:36.176Z,44.20
2018-10-12T13:39:06.850Z,45.00
2018-10-12T13:41:36.824Z,45.30
2018-10-12T13:44:05.492Z,44.30
2018-10-12T13:46:35.051Z,44.00
2018-10-12T13:49:04.831Z,44.90
2018-10-12T13:51:33.705Z,43.30
2018-10-12T13:54:02.554Z,43.80
2018-10-12T13:56:31.473Z,43.10
2018-10-12T13:59:00.099Z,44.40
2018-10-12T14:01:29.173Z,45.40
2018-10-12T14:03:57.946Z,44.10
2018-10-12T14:06:26.588Z,44.50
2018-10-12T14:08:55.428Z,43.20
2018-10-12T14:11:24.120Z,43.50
2018-10-12T14:13:53.798Z,43.40
2018-10-12T14:16:22.521Z,43.10
2018-10-12T14:18:52.065Z,42.50
2018-10-12T14:21:20.497Z,41.70
2018-10-12T14:23:49.384Z,41.20
2018-10-12T14:26:18.076Z,42.40
2018-10-12T14:28:46.667Z,42.30
2018-10-12T14:31:16.137Z,43.10
2018-10-12T14:33:45.565Z,43.40
2018-10-12T14:36:14.300Z,43.80
2018-10-12T14:38:42.921Z,45.60
2018-10-12T14:41:11.783Z,45.40
2018-10-12T14:43:40.316Z,46.50
2018-10-12T14:46:08.972Z,46.30
2018-10-12T14:48:38.537Z,45.60
2018-10-12T14:51:08.277Z,45.80
2018-10-12T14:53:37.158Z,46.70
2018-10-12T14:56:28.605Z,45.10
2018-10-12T14:59:08.711Z,46.00
2018-10-12T15:02:01.416Z,45.80
2018-10-12T15:04:55.525Z,45.20
2018-10-12T15:07:32.019Z,45.10
2018-10-12T15:10:01.860Z,45.10
2018-10-12T15:12:30.651Z,45.80
2018-10-12T15:15:27.369Z,46.00
2018-10-12T15:18:00.028Z,47.10
2018-10-12T15:20:31.588Z,47.70
2018-10-12T15:23:01.223Z,47.90
2018-10-12T15:25:30.941Z,49.20
2018-10-12T15:28:00.528Z,47.30
2018-10-12T15:30:30.073Z,47.70
2018-10-12T15:32:59.407Z,48.60
2018-10-12T15:35:29.353Z,49.80
2018-10-12T15:37:57.998Z,50.00
2018-10-12T15:40:26.755Z,50.40
2018-10-12T15:42:58.736Z,50.60
2018-10-12T15:45:27.178Z,50.70
2018-10-12T15:47:56.683Z,49.50
2018-10-12T15:50:25.609Z,50.50
2018-10-12T15:52:54.219Z,51.20
2018-10-12T15:55:23.787Z,50.60
2018-10-12T15:57:53.401Z,51.60
2018-10-12T16:00:22.524Z,51.90
2018-10-12T16:02:53.250Z,52.30
2018-10-12T16:05:22.534Z,52.80
2018-10-12T16:07:51.565Z,52.70
2018-10-12T16:10:21.954Z,52.70
2018-10-12T16:12:53.046Z,52.40
2018-10-12T16:15:22.507Z,53.80
2018-10-12T16:17:52.856Z,53.70
2018-10-12T16:20:24.190Z,54.20
2018-10-12T16:22:54.860Z,54.80
2018-10-12T16:26:04.855Z,54.80
2018-10-12T16:28:37.257Z,55.30
2018-10-12T16:31:06.004Z,55.30
2018-10-12T16:33:35.565Z,54.40
2018-10-12T16:36:05.529Z,53.90
2018-10-12T16:38:35.363Z,54.00
2018-10-12T16:41:05.010Z,54.80
2018-10-12T16:43:35.709Z,55.00
2018-10-12T16:46:06.848Z,55.40
2018-10-12T16:48:36.668Z,55.50
2018-10-12T16:51:07.298Z,56.00
2018-10-12T16:53:36.334Z,56.30
2018-10-12T16:56:37.095Z,56.30
2018-10-12T16:59:11.789Z,56.40
2018-10-12T17:01:40.301Z,56.80
2018-10-12T17:04:10.513Z,56.70
2018-10-12T17:06:44.978Z,56.50
2018-10-12T17:09:14.237Z,57.20
2018-10-12T17:11:47.964Z,56.10
2018-10-12T17:14:17.996Z,56.90
2018-10-12T17:16:47.717Z,56.80
2018-10-12T17:19:16.324Z,56.60
2018-10-12T17:21:46.610Z,57.00
2018-10-12T17:24:18.541Z,56.90
2018-10-12T17:27:00.688Z,56.80
2018-10-12T17:29:38.255Z,56.50
2018-10-12T17:32:13.922Z,57.40
2018-10-12T17:34:56.472Z,58.60
2018-10-12T17:37:34.178Z,58.10
2018-10-12T17:40:25.319Z,58.70
2018-10-12T17:43:15.221Z,58.90
2018-10-12T17:45:47.237Z,59.40
2018-10-12T17:48:20.112Z,58.90
2018-10-12T17:50:50.219Z,59.10
2018-10-12T17:53:25.406Z,59.90
2018-10-12T17:55:58.969Z,59.90
2018-10-12T17:58:34.745Z,59.30
2018-10-12T18:01:27.220Z,60.00
2018-10-12T18:04:03.973Z,60.60
2018-10-12T18:06:44.778Z,60.30
2018-10-12T18:09:17.992Z,60.80
2018-10-12T18:11:55.274Z,61.00
2018-10-12T18:14:32.997Z,61.20
2018-10-12T18:17:05.325Z,61.10
2018-10-12T18:19:35.065Z,61.50
2018-10-12T18:22:07.300Z,61.80
2018-10-12T18:24:37.573Z,62.20
2018-10-12T18:27:11.497Z,61.90
2018-10-12T18:29:44.004Z,61.60
2018-10-12T18:32:17.710Z,62.60
2018-10-12T18:34:48.568Z,62.40
2018-10-12T18:37:19.516Z,63.00
2018-10-12T18:39:51.512Z,62.70
2018-10-12T18:42:22.315Z,63.60
2018-10-12T18:44:55.869Z,63.80
2018-10-12T18:47:33.384Z,63.20
2018-10-12T18:50:11.220Z,63.40
2018-10-12T18:52:43.368Z,63.80
2018-10-12T18:55:20.565Z,63.80
2018-10-12T18:58:20.156Z,63.90
2018-10-12T19:00:55.799Z,63.50
2018-10-12T19:03:30.252Z,64.40
2018-10-12T19:06:08.099Z,64.20
2018-10-12T19:08:38.156Z,64.50
2018-10-12T19:11:14.607Z,64.50
2018-10-12T19:13:48.750Z,63.90
2018-10-12T19:16:24.869Z,64.40
2018-10-12T19:19:00.853Z,64.40
2018-10-12T19:21:29.978Z,65.30
2018-10-12T19:24:04.891Z,65.70
2018-10-12T19:26:39.444Z,65.90
2018-10-12T19:29:12.087Z,65.70
2018-10-12T19:31:47.872Z,66.30
2018-10-12T19:34:23.680Z,67.30
2018-10-12T19:37:08.859Z,67.30
2018-10-12T19:39:40.204Z,67.60
2018-10-12T19:42:13.094Z,67.70
2018-10-12T19:44:48.926Z,67.60
2018-10-12T19:47:23.764Z,68.10
2018-10-12T19:49:55.869Z,68.10
2018-10-12T19:52:29.069Z,67.90
2018-10-12T19:55:03.325Z,67.80
2018-10-12T19:57:36.935Z,68.10
2018-10-12T20:00:09.098Z,68.40
2018-10-12T20:02:41.773Z,68.20
2018-10-12T20:05:13.950Z,68.60
2018-10-12T20:07:44.033Z,68.60
2018-10-12T20:10:16.218Z,68.80
2018-10-12T20:12:49.476Z,69.00
2018-10-12T20:15:25.106Z,68.90
2018-10-12T20:18:01.943Z,69.10
2018-10-12T20:20:37.306Z,69.40
2018-10-12T20:23:10.108Z,69.30
2018-10-12T20:25:50.307Z,69.20
2018-10-12T20:28:35.064Z,69.10
2018-10-12T20:31:06.833Z,69.50
2018-10-12T20:33:38.700Z,69.60
2018-10-12T20:36:11.334Z,69.70
2018-10-12T20:38:42.823Z,69.80
2018-10-12T20:41:12.948Z,68.90
2018-10-12T20:43:43.435Z,69.10
2018-10-12T20:46:14.573Z,68.80
2018-10-12T20:48:44.956Z,69.10
2018-10-12T20:51:14.240Z,69.20
2018-10-12T20:53:43.478Z,68.90
2018-10-12T20:56:13.616Z,69.00
2018-10-12T20:58:44.587Z,68.70
2018-10-12T21:01:17.396Z,68.50
2018-10-12T21:03:46.879Z,68.30
2018-10-12T21:06:18.401Z,67.40
2018-10-12T21:08:48.166Z,67.70
2018-10-12T21:11:42.275Z,67.80
2018-10-12T21:14:39.827Z,67.70
2018-10-12T21:17:38.350Z,67.40
2018-10-12T21:20:34.641Z,67.00
2018-10-12T21:23:34.126Z,66.50
2018-10-12T21:26:30.940Z,66.80
2018-10-12T21:29:35.530Z,66.80
2018-10-12T21:32:31.394Z,66.30
2018-10-12T21:35:27.459Z,66.20
2018-10-12T21:38:24.362Z,65.80
2018-10-12T21:41:14.546Z,65.40
2018-10-12T21:43:44.102Z,65.60
2018-10-12T21:46:12.970Z,65.20
2018-10-12T21:48:43.254Z,65.60
2018-10-12T21:51:11.994Z,65.50
2018-10-12T21:53:42.045Z,65.30
2018-10-12T21:56:10.783Z,65.80
2018-10-12T21:58:41.122Z,65.90
2018-10-12T22:01:09.990Z,66.30
2018-10-12T22:03:44.407Z,66.80
2018-10-12T22:06:15.310Z,66.20
2018-10-12T22:08:49.325Z,65.90
2018-10-12T22:11:17.721Z,66.00
2018-10-12T22:13:46.369Z,65.70
2018-10-12T22:16:15.242Z,66.00
2018-10-12T22:18:44.471Z,66.10
2018-10-12T22:21:12.966Z,66.20
2018-10-12T22:23:41.883Z,66.10
2018-10-12T22:26:10.831Z,66.40
2018-10-12T22:28:39.651Z,65.90
2018-10-12T22:31:09.320Z,66.20
2018-10-12T22:33:37.811Z,66.00
2018-10-12T22:36:06.532Z,66.80
2018-10-12T22:38:35.251Z,66.60
2018-10-12T22:41:03.941Z,66.50
2018-10-12T22:43:32.781Z,65.90
2018-10-12T22:46:01.516Z,66.80
2018-10-12T22:48:29.974Z,66.60
2018-10-12T22:50:58.843Z,67.60
2018-10-12T22:53:27.767Z,66.70
2018-10-12T22:55:56.647Z,66.40
2018-10-12T22:58:25.529Z,66.40
2018-10-12T23:00:54.381Z,66.50
2018-10-12T23:03:22.892Z,66.70
2018-10-12T23:05:51.767Z,66.70
2018-10-12T23:08:20.615Z,66.60
2018-10-12T23:10:49.149Z,66.60
2018-10-12T23:13:17.839Z,67.00
2018-10-12T23:15:46.731Z,66.70
2018-10-12T23:18:15.417Z,66.60
2018-10-12T23:20:44.094Z,67.00
2018-10-12T23:23:13.009Z,66.60
2018-10-12T23:25:41.879Z,66.20
2018-10-12T23:28:10.760Z,66.30
2018-10-12T23:30:39.453Z,66.60
2018-10-12T23:33:19.150Z,66.90
2018-10-12T23:35:47.657Z,66.90
2018-10-12T23:38:16.148Z,68.00
2018-10-12T23:40:44.830Z,67.30
2018-10-12T23:43:13.333Z,66.40
2018-10-12T23:45:42.233Z,66.60
2018-10-12T23:48:10.900Z,66.60
2018-10-12T23:50:39.412Z,66.20
2018-10-12T23:53:08.273Z,67.10
2018-10-12T23:55:37.148Z,66.90
2018-10-12T23:58:05.684Z,67.00
